Time;durP1;ratioP1;P1;durP2;ratioP2;P2;SDS_P1;SDS_P2;PMS_P1;PMS_P2;Temp;Humidity;BMP_temperature;BMP_pressure;BME280_temperature;BME280_humidity;BME280_pressure;Samples;Min_cycle;Max_cycle;Signal;HPM_P1;HPM_P2
2021/01/29 00:03:20;;;;;;;32.23;12.88;;;;;;;-0.90;73.85;98100.61;1737968;79;21147;-82
2021/01/29 00:06:09;;;;;;;25.95;12.23;;;;;;;-0.85;73.25;98095.96;1738905;79;22713;31
2021/01/29 03:19:12;;;;;;;34.70;13.50;;;;;;;-1.20;81.15;97846.69;1748066;82;21224;-79
2021/01/29 04:10:50;;;;;;;34.85;13.05;;;;;;;-0.94;81.02;97823.34;1669940;81;21212;31
2021/01/29 05:35:38;;;;;;;22.80;9.30;;;;;;;-0.74;81.78;97836.94;1719045;81;21378;31
2021/01/29 05:57:36;;;;;;;34.23;14.07;;;;;;;-0.58;82.17;97839.49;1766418;79;21597;-83
2021/01/29 06:00:28;;;;;;;44.70;19.55;;;;;;;-0.56;82.78;97840.34;1762887;81;21271;-83
2021/01/29 06:03:03;;;;;;;38.35;15.05;;;;;;;-0.53;83.96;97841.63;1747450;81;21287;-87
2021/01/29 06:26:12;;;;;;;47.53;18.20;;;;;;;-0.29;82.20;97830.09;1700736;80;21467;-84
2021/01/29 06:29:19;;;;;;;38.98;17.65;;;;;;;-0.24;82.88;97833.50;1712239;83;21302;-84
2021/01/29 06:35:43;;;;;;;37.50;18.45;;;;;;;-0.23;82.73;97837.73;1783786;77;21156;-85
2021/01/29 06:38:34;;;;;;;31.62;13.00;;;;;;;-0.23;82.50;97829.23;1765857;77;21374;-89
2021/01/29 06:41:51;;;;;;;34.88;14.18;;;;;;;-0.29;82.17;97822.42;1753595;78;21149;-88
2021/01/29 06:44:46;;;;;;;27.02;12.35;;;;;;;-0.28;83.15;97841.15;1752213;80;21299;-88
2021/01/29 06:47:31;;;;;;;35.03;14.30;;;;;;;-0.20;81.95;97829.20;1765251;81;21275;-91
2021/01/29 06:50:23;;;;;;;28.38;12.95;;;;;;;-0.14;81.69;97843.67;1743136;80;21357;-90
2021/01/29 06:53:33;;;;;;;31.12;12.82;;;;;;;-0.13;82.53;97846.23;1759333;81;21713;-90
2021/01/29 06:56:27;;;;;;;34.92;15.15;;;;;;;-0.32;83.95;97836.50;1767016;81;21308;-84
2021/01/29 06:59:37;;;;;;;32.33;13.00;;;;;;;-0.20;82.29;97839.42;1748822;79;21711;-86
2021/01/29 07:02:25;;;;;;;39.48;13.98;;;;;;;-0.26;83.18;97827.55;1758831;80;21117;-84
2021/01/29 07:05:38;;;;;;;34.67;14.18;;;;;;;-0.24;83.82;97836.05;1778990;80;21315;-83
2021/01/29 07:08:30;;;;;;;35.45;15.03;;;;;;;-0.22;83.77;97840.73;1772565;80;21256;-85
2021/01/29 07:11:06;;;;;;;40.58;16.23;;;;;;;-0.13;83.52;97837.73;1765404;80;21265;-88
2021/01/29 07:14:10;;;;;;;37.35;14.60;;;;;;;-0.13;83.68;97842.40;1758923;80;21154;-87
2021/01/29 07:17:00;;;;;;;29.42;13.00;;;;;;;-0.06;83.21;97841.94;1764597;79;21273;-86
2021/01/29 07:19:51;;;;;;;31.87;11.90;;;;;;;-0.04;83.62;97838.95;1758082;79;21287;-83
2021/01/29 07:22:49;;;;;;;23.30;10.18;;;;;;;0.02;83.75;97822.36;1751499;80;21280;-82
2021/01/29 07:25:34;;;;;;;30.10;11.33;;;;;;;0.03;84.22;97822.77;1758071;80;21149;-84
2021/01/29 07:28:39;;;;;;;28.30;13.05;;;;;;;0.07;83.57;97823.17;1757067;80;21829;-84
2021/01/29 07:31:35;;;;;;;29.10;12.13;;;;;;;0.08;85.00;97821.05;1757140;79;21182;-85
2021/01/29 07:34:38;;;;;;;28.15;11.43;;;;;;;0.16;84.31;97824.83;1754269;80;21291;-87
2021/01/29 07:37:49;;;;;;;21.27;10.18;;;;;;;0.19;84.56;97829.51;1754131;79;21505;-83
2021/01/29 07:41:02;;;;;;;24.32;9.58;;;;;;;0.21;84.78;97823.13;1758480;80;21291;-83
2021/01/29 07:43:53;;;;;;;23.10;9.35;;;;;;;0.27;85.38;97832.48;1742149;80;21751;-84
2021/01/29 07:46:44;;;;;;;22.22;10.32;;;;;;;0.35;85.02;97835.84;1785280;78;21281;-82
2021/01/29 07:49:38;;;;;;;28.98;11.15;;;;;;;0.42;85.19;97836.25;1789259;78;21282;-82
2021/01/29 07:52:25;;;;;;;27.48;11.03;;;;;;;0.51;84.88;97837.47;1788829;78;21172;-82
2021/01/29 07:55:24;;;;;;;24.52;11.85;;;;;;;0.58;85.19;97831.91;1739519;79;21177;-82
2021/01/29 07:58:18;;;;;;;27.98;11.28;;;;;;;0.70;84.86;97833.55;1789346;78;22615;-83
2021/01/29 08:01:03;;;;;;;28.47;10.00;;;;;;;0.82;84.02;97823.23;1784081;78;21605;-82
2021/01/29 08:04:11;;;;;;;27.13;11.55;;;;;;;0.95;83.82;97828.66;1791745;78;21145;-83
2021/01/29 08:07:14;;;;;;;29.75;12.25;;;;;;;1.06;83.98;97829.05;1746668;79;21169;-82
2021/01/29 08:09:55;;;;;;;25.95;10.75;;;;;;;1.19;84.32;97834.47;1782082;78;21148;-84
2021/01/29 08:12:25;;;;;;;28.92;11.43;;;;;;;1.30;84.00;97842.92;1791333;78;21184;-84
2021/01/29 08:15:25;;;;;;;25.32;10.95;;;;;;;1.30;84.57;97842.92;1787881;78;21170;-83
2021/01/29 08:18:07;;;;;;;19.52;9.78;;;;;;;1.41;84.56;97844.54;1754617;78;21144;-82
2021/01/29 08:21:17;;;;;;;23.50;9.20;;;;;;;1.56;83.70;97851.66;1787147;78;21557;-83
2021/01/29 08:24:12;;;;;;;19.75;8.95;;;;;;;1.66;83.64;97844.74;1790835;78;21165;-82
2021/01/29 08:26:51;;;;;;;23.52;10.00;;;;;;;1.83;83.28;97847.16;1794343;78;21152;-82
2021/01/29 08:29:48;;;;;;;20.23;8.68;;;;;;;2.02;82.96;97843.95;1785888;78;21165;-85
2021/01/29 08:33:19;;;;;;;15.40;7.30;;;;;;;2.29;82.80;97853.46;1879849;76;23048;-85
2021/01/29 08:36:39;;;;;;;18.73;8.73;;;;;;;2.35;82.71;97845.72;1858579;77;21124;-82
2021/01/29 08:39:23;;;;;;;16.35;8.35;;;;;;;2.44;82.10;97858.86;1853721;77;21133;-84
2021/01/29 08:42:30;;;;;;;17.75;7.85;;;;;;;2.58;81.92;97852.67;1854685;77;21136;-86
2021/01/29 08:45:34;;;;;;;17.92;7.40;;;;;;;2.79;81.54;97846.86;1855502;77;21153;-89
2021/01/29 08:48:29;;;;;;;17.00;8.03;;;;;;;3.10;80.70;97829.26;1788984;79;22952;-85
2021/01/29 08:51:11;;;;;;;17.23;7.60;;;;;;;3.17;80.09;97824.90;1792337;79;21145;-90
2021/01/29 08:54:20;;;;;;;12.88;7.40;;;;;;;3.20;80.05;97827.40;1788641;79;21334;-86
2021/01/29 08:57:14;;;;;;;14.25;6.65;;;;;;;3.31;79.67;97820.38;1789724;78;21289;-89
2021/01/29 08:59:42;;;;;;;15.50;6.87;;;;;;;3.45;79.48;97810.32;1791769;80;21595;-86
2021/01/29 09:02:42;;;;;;;14.87;6.45;;;;;;;3.52;79.36;97812.76;1791345;80;21791;-89
2021/01/29 09:05:24;;;;;;;14.53;6.78;;;;;;;3.54;78.89;97817.44;1791588;80;21724;-84
2021/01/29 09:07:59;;;;;;;16.30;8.00;;;;;;;3.65;78.31;97813.82;1788490;79;21181;-85
2021/01/29 09:10:58;;;;;;;18.20;8.30;;;;;;;3.72;77.99;97829.53;1791266;79;21177;-85
2021/01/29 09:13:28;;;;;;;14.13;7.33;;;;;;;3.81;77.88;97845.25;1791450;80;21194;-88
2021/01/29 09:16:20;;;;;;;18.57;7.72;;;;;;;3.78;77.18;97839.28;1791452;79;21164;-89
2021/01/29 09:19:11;;;;;;;14.73;7.05;;;;;;;3.82;77.08;97837.92;1713848;82;21180;-85
2021/01/29 09:22:02;;;;;;;14.13;6.17;;;;;;;3.66;77.05;97831.80;1739506;81;21663;-84
2021/01/29 09:24:44;;;;;;;11.05;5.10;;;;;;;3.84;77.14;97834.47;1741740;81;21535;-90
2021/01/29 09:27:41;;;;;;;14.38;4.85;;;;;;;3.89;77.04;97835.66;1742925;82;21203;-83
2021/01/29 09:30:29;;;;;;;12.30;4.72;;;;;;;4.07;76.89;97825.02;1739777;82;21161;-86
2021/01/29 09:33:31;;;;;;;13.90;5.30;;;;;;;4.19;77.09;97818.34;1742464;82;21208;-85
2021/01/29 09:36:28;;;;;;;10.60;4.87;;;;;;;4.20;76.67;97819.22;1742250;82;21241;-88
2021/01/29 09:39:22;;;;;;;9.08;3.58;;;;;;;4.34;76.69;97800.48;1739580;81;21184;-85
2021/01/29 09:42:12;;;;;;;8.70;3.53;;;;;;;4.49;75.32;97785.14;1742720;81;21177;-84
2021/01/29 09:45:00;;;;;;;10.95;4.70;;;;;;;4.49;75.32;97785.14;1741412;81;22336;-83
2021/01/29 09:47:32;;;;;;;12.43;4.90;;;;;;;4.56;75.28;97783.30;1733992;82;21181;-84
2021/01/29 09:50:08;;;;;;;12.88;5.58;;;;;;;4.59;74.95;97790.94;1724585;83;21188;-90
2021/01/29 09:53:08;;;;;;;14.23;5.03;;;;;;;4.68;74.62;97795.89;1730521;83;21662;-88
2021/01/29 09:55:53;;;;;;;7.95;3.77;;;;;;;4.68;74.57;97798.47;1731571;82;21324;-84
2021/01/29 09:58:43;;;;;;;13.40;3.85;;;;;;;4.80;74.35;97805.08;1731326;83;21197;-84
2021/01/29 10:01:15;;;;;;;9.38;3.35;;;;;;;4.87;74.90;97800.17;1724733;82;21180;-84
2021/01/29 10:03:57;;;;;;;10.60;2.83;;;;;;;4.97;73.36;97811.98;1728830;83;21196;-87
2021/01/29 10:06:58;;;;;;;6.87;2.27;;;;;;;5.07;72.89;97798.86;1729949;83;21279;-86
2021/01/29 10:09:41;;;;;;;7.67;2.30;;;;;;;5.15;72.02;97794.38;1807648;77;23511;-85
2021/01/29 10:12:22;;;;;;;4.65;2.00;;;;;;;5.19;71.51;97801.14;1818762;78;21126;-85
2021/01/29 10:15:08;;;;;;;10.48;2.83;;;;;;;5.14;71.44;97801.72;1699869;82;21642;-85
2021/01/29 10:17:45;;;;;;;7.25;2.85;;;;;;;5.02;71.93;97799.44;1748478;81;21226;-84
2021/01/29 10:20:33;;;;;;;5.37;2.20;;;;;;;4.90;71.70;97784.66;1729828;81;22453;-88
2021/01/29 10:23:15;;;;;;;8.15;3.00;;;;;;;4.98;72.14;97785.33;1776374;80;21130;-88
2021/01/29 10:26:06;;;;;;;6.87;2.70;;;;;;;5.03;72.27;97780.50;1771088;80;21208;-83
2021/01/29 10:29:08;;;;;;;6.87;2.10;;;;;;;5.06;72.49;97780.45;1805064;79;21606;-85
2021/01/29 10:31:52;;;;;;;8.13;2.08;;;;;;;5.07;72.21;97787.27;1813005;78;21611;-82
2021/01/29 10:34:40;;;;;;;5.30;2.27;;;;;;;5.07;72.53;97785.53;1807088;78;21145;-87
2021/01/29 10:37:23;;;;;;;4.97;2.02;;;;;;;5.12;73.10;97780.30;1813970;78;21134;-86
2021/01/29 10:40:27;;;;;;;5.45;1.72;;;;;;;4.96;73.08;97772.09;1731020;82;21165;-87
2021/01/29 10:43:36;;;;;;;4.75;2.40;;;;;;;4.87;73.16;97774.42;1750531;81;21141;-86
2021/01/29 10:46:44;;;;;;;6.80;2.47;;;;;;;4.89;72.98;97774.39;1801674;79;21216;-82
2021/01/29 10:49:44;;;;;;;6.53;1.90;;;;;;;4.82;73.60;97768.55;1805836;79;21294;-85
2021/01/29 10:52:34;;;;;;;23.65;3.15;;;;;;;4.59;74.57;97766.48;1807513;79;21138;-87
2021/01/29 10:55:19;;;;;;;5.58;1.80;;;;;;;4.48;75.39;97764.61;1807456;79;21144;-85
2021/01/29 10:58:21;;;;;;;5.87;1.90;;;;;;;4.34;76.15;97765.74;1804424;79;21142;-83
2021/01/29 11:00:58;;;;;;;5.70;1.90;;;;;;;4.29;76.37;97748.70;1802193;79;21149;-84
2021/01/29 11:03:53;;;;;;;5.22;2.12;;;;;;;4.29;75.98;97744.84;1808244;78;21171;-83
2021/01/29 11:06:25;;;;;;;4.30;2.05;;;;;;;4.25;76.23;97743.22;1815685;78;21846;-82
2021/01/29 11:08:57;;;;;;;6.53;2.70;;;;;;;4.28;76.43;97741.88;1817412;78;21157;-82
2021/01/29 11:11:41;;;;;;;5.42;1.92;;;;;;;4.31;76.11;97736.66;1712613;82;21181;-82
2021/01/29 11:14:28;;;;;;;3.00;1.85;;;;;;;4.29;76.20;97733.27;1753202;81;21147;-82
2021/01/29 11:17:16;;;;;;;3.02;1.55;;;;;;;4.34;76.38;97727.59;1715322;81;21854;-86
2021/01/29 11:19:47;;;;;;;8.20;2.10;;;;;;;4.39;76.18;97725.75;1771823;80;21621;-83
2021/01/29 11:22:50;;;;;;;3.47;1.95;;;;;;;4.46;75.94;97723.45;1736784;82;21197;-85
2021/01/29 11:25:32;;;;;;;12.07;2.30;;;;;;;4.44;75.65;97721.36;1723645;81;21173;-86
2021/01/29 11:28:40;;;;;;;4.30;1.90;;;;;;;4.54;75.53;97729.27;1766604;80;21177;-83
2021/01/29 11:31:49;;;;;;;3.50;1.70;;;;;;;4.60;74.76;97732.16;1734495;81;21655;-84
2021/01/29 11:34:25;;;;;;;4.08;2.12;;;;;;;4.56;74.55;97736.97;1765406;81;21164;-83
2021/01/29 11:37:11;;;;;;;3.47;2.17;;;;;;;4.37;75.22;97722.36;1802124;79;22243;-83
2021/01/29 11:39:48;;;;;;;8.55;1.70;;;;;;;4.42;75.43;97733.41;1746415;79;21156;-86
2021/01/29 11:42:30;;;;;;;5.55;1.95;;;;;;;4.57;75.16;97733.05;1806367;79;21162;-88
2021/01/29 11:45:18;;;;;;;4.87;2.08;;;;;;;4.51;75.77;97730.61;1748807;80;21728;-91
2021/01/29 11:48:09;;;;;;;3.35;1.80;;;;;;;4.50;76.00;97737.95;1761880;80;21221;-87
2021/01/29 11:51:09;;;;;;;7.05;2.47;;;;;;;4.56;76.05;97728.80;1768627;80;21166;-89
2021/01/29 11:53:51;;;;;;;4.67;2.35;;;;;;;4.58;75.93;97728.32;1768086;80;21179;-88
2021/01/29 11:56:56;;;;;;;6.67;1.90;;;;;;;4.68;75.63;97722.97;1741991;80;21980;-86
2021/01/29 11:59:49;;;;;;;5.62;2.60;;;;;;;4.69;75.59;97720.78;1748368;80;22063;-82
2021/01/29 12:02:31;;;;;;;5.42;2.22;;;;;;;4.67;76.02;97716.95;1746729;81;21201;-86
2021/01/29 12:05:16;;;;;;;5.92;2.25;;;;;;;4.71;75.97;97715.16;1738286;81;21179;-88
2021/01/29 12:08:23;;;;;;;4.17;2.20;;;;;;;4.78;75.64;97705.13;1768269;80;21241;-82
2021/01/29 12:11:05;;;;;;;4.47;2.20;;;;;;;4.74;76.29;97708.22;1757368;80;21661;-83
2021/01/29 12:13:44;;;;;;;10.48;4.20;;;;;;;4.86;76.31;97708.36;1732421;82;21614;-86
2021/01/29 12:16:23;;;;;;;17.87;6.85;;;;;;;4.93;76.12;97700.91;1771464;80;22328;-87
2021/01/29 12:18:54;;;;;;;49.13;21.87;;;;;;;4.96;75.87;97698.69;1758478;80;21169;-90
2021/01/29 12:21:30;;;;;;;22.95;10.08;;;;;;;5.05;75.79;97710.48;1760565;80;21188;-89
2021/01/29 12:24:33;;;;;;;11.97;5.10;;;;;;;5.11;75.54;97707.74;1732455;82;21136;-87
2021/01/29 12:27:31;;;;;;;16.00;5.10;;;;;;;5.10;75.56;97715.08;1673956;84;21241;-89
2021/01/29 12:30:20;;;;;;;8.20;4.05;;;;;;;5.16;75.14;97727.81;1673019;84;21201;-84
2021/01/29 12:33:10;;;;;;;13.72;4.72;;;;;;;5.15;75.16;97728.67;1692232;82;21177;-87
2021/01/29 12:35:49;;;;;;;9.90;4.63;;;;;;;5.16;75.19;97718.79;1755816;81;21180;-82
2021/01/29 12:38:28;;;;;;;8.08;4.60;;;;;;;5.11;75.33;97718.05;1736735;81;21176;-87
2021/01/29 12:41:19;;;;;;;17.73;7.60;;;;;;;4.98;75.65;97723.95;1758816;80;22465;-84
2021/01/29 12:44:26;;;;;;;13.32;5.97;;;;;;;4.95;75.69;97728.75;1763601;80;21169;-86
2021/01/29 12:47:03;;;;;;;12.03;6.22;;;;;;;4.88;75.89;97728.48;1761147;80;21196;-84
2021/01/29 12:49:53;;;;;;;13.48;6.00;;;;;;;4.76;76.26;97732.20;1732160;82;21185;-89
2021/01/29 12:52:41;;;;;;;14.05;7.40;;;;;;;4.79;75.93;97729.98;1730482;82;21197;-85
2021/01/29 12:55:24;;;;;;;15.00;6.87;;;;;;;4.83;75.44;97729.02;1757911;81;21177;-80
2021/01/29 12:58:06;;;;;;;10.93;5.30;;;;;;;4.66;77.04;97727.31;1763034;80;21586;-84
2021/01/29 13:00:39;;;;;;;11.80;5.67;;;;;;;4.62;77.13;97712.38;1758687;80;21192;-86
2021/01/29 13:03:33;;;;;;;17.12;6.83;;;;;;;4.67;77.35;97716.95;1762263;80;21161;-83
2021/01/29 13:06:42;;;;;;;15.23;6.47;;;;;;;4.85;77.05;97710.97;1733489;82;21165;-84
2021/01/29 13:09:34;;;;;;;15.03;6.67;;;;;;;4.91;77.18;97713.39;1771929;80;21209;-84
2021/01/29 13:12:31;;;;;;;17.52;7.75;;;;;;;4.96;77.28;97707.70;1768882;80;21708;-86
2021/01/29 13:15:27;;;;;;;17.62;8.35;;;;;;;4.98;77.44;97710.62;1767897;80;21188;-87
2021/01/29 13:18:14;;;;;;;15.50;7.58;;;;;;;5.07;76.97;97706.13;1767935;80;21192;-86
2021/01/29 13:20:50;;;;;;;21.85;9.18;;;;;;;5.06;76.97;97708.32;1772140;80;21632;-84
2021/01/29 13:23:26;;;;;;;16.95;8.98;;;;;;;5.08;76.91;97711.70;1753681;81;21175;-84
2021/01/29 13:26:08;;;;;;;21.90;9.48;;;;;;;5.19;75.97;97700.66;1798069;78;21167;-82
2021/01/29 13:28:40;;;;;;;22.35;9.28;;;;;;;5.14;76.08;97699.50;1798904;79;21168;-86
2021/01/29 13:31:26;;;;;;;19.57;9.43;;;;;;;4.97;77.32;97705.09;1786303;79;21980;-83
2021/01/29 13:34:15;;;;;;;16.10;7.12;;;;;;;5.07;76.37;97697.11;1793924;78;21171;-83
2021/01/29 13:37:09;;;;;;;14.70;7.37;;;;;;;4.97;77.17;97699.07;1800437;79;21168;-81
2021/01/29 13:39:43;;;;;;;16.30;7.72;;;;;;;5.04;76.67;97683.04;1789683;79;21168;-85
2021/01/29 13:42:19;;;;;;;16.25;6.85;;;;;;;4.95;77.43;97691.41;1794951;79;21195;-83
2021/01/29 13:45:06;;;;;;;16.32;7.45;;;;;;;5.01;77.29;97692.95;1793526;79;21643;-83
2021/01/29 13:47:42;;;;;;;17.32;7.75;;;;;;;4.96;77.60;97687.93;1792141;79;21180;-88
2021/01/29 13:50:31;;;;;;;18.73;8.18;;;;;;;5.06;77.36;97683.39;1749200;81;21168;-81
2021/01/29 13:53:32;;;;;;;25.25;10.15;;;;;;;5.07;77.55;97675.22;1796171;79;21597;-82
2021/01/29 13:56:22;;;;;;;17.23;7.97;;;;;;;5.12;77.34;97678.08;1756804;80;21166;-87
2021/01/29 13:58:57;;;;;;;15.90;7.28;;;;;;;5.11;77.02;97677.70;1795164;79;21173;-87
2021/01/29 14:01:53;;;;;;;14.23;7.47;;;;;;;5.10;76.93;97673.41;1755181;80;21205;-86
2021/01/29 14:04:26;;;;;;;11.63;6.22;;;;;;;5.04;77.36;97668.87;1770501;80;21153;-82
2021/01/29 14:06:54;;;;;;;13.40;6.70;;;;;;;4.92;77.78;97678.59;1788741;79;21569;-84
2021/01/29 14:09:22;;;;;;;15.28;6.42;;;;;;;5.05;76.50;97672.67;1781631;79;21160;-85
2021/01/29 14:12:13;;;;;;;14.40;6.47;;;;;;;5.01;77.19;97672.80;1760780;80;21709;-88
2021/01/29 14:15:14;;;;;;;15.48;7.08;;;;;;;4.99;77.36;97662.53;1759024;81;21173;-85
2021/01/29 14:18:21;;;;;;;16.75;6.20;;;;;;;5.06;77.08;97661.95;1765693;80;21153;-83
2021/01/29 14:21:00;;;;;;;15.72;6.83;;;;;;;5.16;76.77;97639.77;1764228;80;21182;-86
2021/01/29 14:23:53;;;;;;;14.60;7.42;;;;;;;5.15;77.01;97647.10;1725517;81;22040;-86
2021/01/29 14:26:38;;;;;;;11.70;6.40;;;;;;;5.10;76.82;97635.23;1732938;81;21196;-89
2021/01/29 14:29:33;;;;;;;14.87;6.45;;;;;;;5.21;76.44;97634.92;1736354;81;21598;-91
2021/01/29 14:32:22;;;;;;;14.45;7.62;;;;;;;5.14;76.36;97629.94;1729756;81;21445;-91
2021/01/29 14:35:04;;;;;;;14.55;6.87;;;;;;;5.15;76.40;97624.34;1728472;82;21166;-92
2021/01/29 14:37:58;;;;;;;13.90;6.55;;;;;;;5.18;76.30;97622.98;1727078;81;21234;-91
2021/01/29 14:40:33;;;;;;;;;;;;;;;5.14;76.18;97640.25;1730447;82;21531;-91
2021/01/29 14:43:55;;;;;;;11.60;5.78;;;;;;;5.07;76.75;97645.59;1716080;81;20179;-92
2021/01/29 14:46:46;;;;;;;13.28;5.83;;;;;;;5.06;76.86;97641.34;1747602;81;21157;-92
2021/01/29 14:49:43;;;;;;;23.00;7.10;;;;;;;4.97;77.12;97645.85;1731092;81;21187;-95
2021/01/29 14:52:15;;;;;;;10.38;5.95;;;;;;;4.97;76.96;97647.14;1736324;81;21127;-94
2021/01/29 14:54:51;;;;;;;;;;;;;;;4.94;76.75;97646.37;1731113;82;21219;-94
2021/01/29 14:57:39;;;;;;;13.05;6.75;;;;;;;4.89;76.60;97641.31;1725486;82;20187;-93
2021/01/29 15:00:21;;;;;;;12.93;5.05;;;;;;;4.88;76.63;97651.23;1745552;81;21279;-93
2021/01/29 15:03:20;;;;;;;10.65;5.30;;;;;;;4.84;76.29;97644.47;1734981;81;21311;-93
2021/01/29 15:05:51;;;;;;;12.47;5.17;;;;;;;4.81;76.79;97649.68;1726711;81;21889;-94
2021/01/29 15:08:23;;;;;;;12.88;5.58;;;;;;;4.77;77.17;97657.95;1736509;82;21157;-93
2021/01/29 15:11:02;;;;;;;12.07;5.95;;;;;;;4.80;77.09;97663.45;1760287;80;21857;-93
2021/01/29 15:13:47;;;;;;;11.95;5.92;;;;;;;4.81;77.32;97661.27;1769376;80;21319;-93
2021/01/29 15:16:43;;;;;;;12.50;6.75;;;;;;;4.84;77.38;97651.36;1773602;80;21241;-93
2021/01/29 15:19:32;;;;;;;14.25;6.95;;;;;;;4.82;77.47;97648.81;1746128;81;21188;-93
2021/01/29 15:22:05;;;;;;;14.50;7.20;;;;;;;4.83;77.09;97656.92;1757310;80;21260;-92
2021/01/29 15:24:52;;;;;;;17.67;6.90;;;;;;;4.79;77.56;97659.17;1824821;77;22975;-90
2021/01/29 15:27:29;;;;;;;14.05;7.12;;;;;;;4.71;77.76;97659.80;1789355;80;21320;-94
2021/01/29 15:30:03;;;;;;;18.45;9.15;;;;;;;4.60;78.74;97658.80;1791892;80;21322;-93
2021/01/29 15:32:38;;;;;;;22.40;9.85;;;;;;;4.59;78.15;97660.95;1764802;81;21304;-93
2021/01/29 15:35:18;;;;;;;26.52;9.98;;;;;;;4.35;79.75;97663.66;1789131;80;21267;-93
2021/01/29 15:38:12;;;;;;;25.12;10.63;;;;;;;4.32;78.15;97667.61;1787775;80;21669;-92
2021/01/29 15:40:50;;;;;;;28.67;11.90;;;;;;;4.23;78.88;97655.78;1797291;80;21603;-92
2021/01/29 15:43:31;;;;;;;24.85;11.57;;;;;;;4.10;79.17;97660.78;1781103;79;21292;-92
2021/01/29 15:46:05;;;;;;;25.60;11.50;;;;;;;3.98;81.15;97666.63;1789132;80;21628;-92
2021/01/29 15:49:01;;;;;;;27.75;11.10;;;;;;;3.93;81.19;97663.29;1786366;79;21316;-90
2021/01/29 15:51:55;;;;;;;25.88;11.88;;;;;;;3.91;80.22;97661.64;1780579;80;21277;-89
2021/01/29 15:54:34;;;;;;;25.30;11.75;;;;;;;3.81;82.32;97658.86;1794099;80;21344;-91
2021/01/29 15:57:13;;;;;;;32.48;12.50;;;;;;;3.84;81.31;97666.49;1782023;80;21289;-92
2021/01/29 15:59:51;;;;;;;30.35;13.68;;;;;;;3.78;83.16;97672.19;1787610;78;21159;-92
2021/01/29 16:02:41;;;;;;;30.82;14.18;;;;;;;3.79;82.98;97666.15;1745570;81;21174;-92
2021/01/29 16:05:43;;;;;;;26.35;12.78;;;;;;;3.80;82.82;97664.45;1735199;81;21192;-92
2021/01/29 16:08:27;;;;;;;24.30;13.22;;;;;;;3.71;83.15;97665.91;1721868;82;21584;-94
2021/01/29 16:11:20;;;;;;;33.05;13.15;;;;;;;3.59;84.71;97661.42;1727248;81;22394;-89
2021/01/29 16:13:47;;;;;;;26.23;12.25;;;;;;;3.53;84.98;97661.55;1726794;81;21605;-86
2021/01/29 16:16:20;;;;;;;23.02;11.75;;;;;;;3.49;83.52;97659.08;1724925;81;21204;-83
2021/01/29 16:18:52;;;;;;;28.17;12.00;;;;;;;3.47;83.40;97660.83;1725239;81;21156;-89
2021/01/29 16:21:31;;;;;;;26.30;12.03;;;;;;;3.32;87.42;97660.67;1729688;82;21203;-86
2021/01/29 16:23:59;;;;;;;29.07;13.53;;;;;;;3.35;85.82;97656.33;1722448;82;21196;-85
2021/01/29 16:26:39;;;;;;;31.05;14.78;;;;;;;3.34;86.70;97652.49;1715977;82;22005;-85
2021/01/29 16:29:11;;;;;;;28.73;14.03;;;;;;;3.36;85.49;97655.88;1714761;82;21312;-89
2021/01/29 16:31:46;;;;;;;28.67;13.70;;;;;;;3.28;88.64;97649.62;1693052;83;21192;-86
2021/01/29 16:34:22;;;;;;;33.55;15.38;;;;;;;3.29;88.13;97649.19;1712711;82;21721;-88
2021/01/29 16:36:56;;;;;;;35.85;14.55;;;;;;;3.35;86.33;97641.36;1716816;82;21204;-85
2021/01/29 16:39:32;;;;;;;32.25;14.03;;;;;;;3.33;87.37;97638.81;1714823;82;21204;-83
2021/01/29 16:42:22;;;;;;;41.98;16.37;;;;;;;3.33;87.95;97638.81;1712447;82;21212;-88
2021/01/29 16:45:00;;;;;;;40.40;17.77;;;;;;;3.39;87.74;97632.72;1711618;82;21166;-83
2021/01/29 16:47:37;;;;;;;39.05;16.02;;;;;;;3.43;86.96;97637.36;1713992;82;21180;-84
2021/01/29 16:50:29;;;;;;;41.60;17.40;;;;;;;3.46;87.17;97629.58;1716160;82;21184;-85
2021/01/29 16:53:14;;;;;;;33.60;14.20;;;;;;;3.47;85.91;97633.85;1713282;82;21161;-82
2021/01/29 16:55:42;;;;;;;37.05;15.65;;;;;;;3.45;86.38;97633.03;1712789;82;21363;-86
2021/01/29 16:58:27;;;;;;;31.73;14.28;;;;;;;3.44;85.59;97630.87;1711288;82;21198;-80
2021/01/29 17:01:12;;;;;;;33.92;14.28;;;;;;;3.41;86.38;97634.81;1714799;82;21181;-87
2021/01/29 17:03:46;;;;;;;31.55;14.83;;;;;;;3.41;88.06;97624.54;1710793;82;21198;-88
2021/01/29 17:06:26;;;;;;;39.13;17.27;;;;;;;3.44;87.90;97608.20;1718256;82;21176;-85
2021/01/29 17:08:58;;;;;;;37.78;15.78;;;;;;;3.47;87.24;97604.30;1713695;82;21165;-86
2021/01/29 17:11:36;;;;;;;37.00;17.12;;;;;;;3.49;87.32;97603.83;1713622;82;21173;-82
2021/01/29 17:14:16;;;;;;;43.52;19.10;;;;;;;3.49;87.50;97594.84;1718122;82;21157;-84
2021/01/29 17:16:47;;;;;;;35.03;15.53;;;;;;;3.47;88.36;97601.73;1710688;82;21217;-86
2021/01/29 17:19:19;;;;;;;37.17;17.00;;;;;;;3.51;87.79;97599.06;1689808;82;21677;-83
2021/01/29 17:22:23;;;;;;;33.65;16.20;;;;;;;3.51;88.46;97593.92;1711738;82;21197;-87
2021/01/29 17:24:56;;;;;;;34.95;16.17;;;;;;;3.50;89.12;97592.66;1720978;82;22326;-81
2021/01/29 17:27:24;;;;;;;31.20;13.70;;;;;;;3.49;89.32;97590.54;1708038;82;21630;-85
2021/01/29 17:29:56;;;;;;;32.70;14.83;;;;;;;3.46;89.06;97576.48;1723092;82;22060;-91
2021/01/29 17:32:32;;;;;;;31.00;14.35;;;;;;;3.46;89.35;97588.46;1716569;82;22088;-90
2021/01/29 17:35:14;;;;;;;31.07;13.98;;;;;;;3.45;89.77;97588.91;1712374;83;21719;-92
2021/01/29 17:37:42;;;;;;;32.42;15.55;;;;;;;3.53;87.71;97581.05;1719370;82;21185;-85
2021/01/29 17:40:33;;;;;;;34.58;15.78;;;;;;;3.52;88.97;97586.63;1716265;82;21594;-85
2021/01/29 17:43:01;;;;;;;35.68;16.42;;;;;;;3.55;87.61;97576.72;1716675;81;21182;-82
2021/01/29 17:45:33;;;;;;;39.67;17.27;;;;;;;3.54;87.75;97571.16;1722131;81;21185;-82
2021/01/29 17:48:23;;;;;;;36.28;15.32;;;;;;;3.54;88.38;97566.02;1710888;81;21641;-90
2021/01/29 17:50:55;;;;;;;32.80;15.40;;;;;;;3.55;86.46;97565.16;1715750;82;21239;-83
2021/01/29 17:53:47;;;;;;;31.23;13.60;;;;;;;3.55;87.24;97560.02;1714765;81;21196;-84
2021/01/29 17:56:38;;;;;;;32.60;12.43;;;;;;;3.53;87.98;97557.92;1716547;82;21184;-81
2021/01/29 17:59:06;;;;;;;27.22;11.50;;;;;;;3.58;86.65;97558.65;1715053;82;21194;-83
2021/01/29 18:01:54;;;;;;;32.60;13.13;;;;;;;3.62;86.33;97555.16;1712207;82;22300;-81
2021/01/29 18:04:29;;;;;;;27.17;12.73;;;;;;;3.66;86.53;97546.50;1713917;82;21204;-82
2021/01/29 18:07:14;;;;;;;23.52;11.48;;;;;;;3.66;87.23;97543.94;1711656;81;21197;-85
2021/01/29 18:10:08;;;;;;;23.47;11.33;;;;;;;3.67;87.47;97546.89;1713707;82;21215;-84
2021/01/29 18:12:38;;;;;;;24.27;11.40;;;;;;;3.68;87.85;97547.31;1715592;82;21198;-88
2021/01/29 18:15:25;;;;;;;26.82;13.03;;;;;;;3.75;86.70;97544.99;1718257;82;21193;-86
2021/01/29 18:18:03;;;;;;;24.77;11.83;;;;;;;3.78;86.55;97546.67;1718480;81;21494;-82
2021/01/29 18:20:47;;;;;;;28.85;13.45;;;;;;;3.81;86.89;97547.03;1713989;82;21205;-85
2021/01/29 18:23:26;;;;;;;30.62;14.40;;;;;;;3.81;87.50;97546.59;1719360;82;21193;-91
2021/01/29 18:25:54;;;;;;;37.93;16.10;;;;;;;3.87;86.72;97545.61;1717563;82;21657;-90
2021/01/29 18:28:27;;;;;;;39.40;17.87;;;;;;;3.88;86.85;97550.72;1712296;82;21177;-88
2021/01/29 18:30:59;;;;;;;36.45;18.82;;;;;;;3.82;86.43;97542.28;1722641;81;22394;-87
2021/01/29 18:33:32;;;;;;;39.05;19.02;;;;;;;3.77;86.12;97548.83;1706455;82;21199;-88
2021/01/29 18:36:00;;;;;;;49.03;20.80;;;;;;;3.72;85.29;97540.36;1709936;82;21623;-85
2021/01/29 18:38:27;;;;;;;40.85;19.10;;;;;;;3.62;85.19;97542.31;1731825;81;21221;-89
2021/01/29 18:40:57;;;;;;;40.85;19.25;;;;;;;3.54;85.46;97541.19;1725633;81;21214;-87
2021/01/29 18:43:28;;;;;;;39.63;19.20;;;;;;;3.46;85.78;97535.80;1736372;81;21167;-89
2021/01/29 18:45:58;;;;;;;38.40;18.07;;;;;;;3.36;86.16;97527.44;1715308;82;21441;-88
2021/01/29 18:48:26;;;;;;;36.63;17.73;;;;;;;3.34;86.27;97535.62;1740153;81;22205;-87
2021/01/29 18:50:55;;;;;;;41.90;17.52;;;;;;;3.32;85.09;97541.22;1740980;81;21191;-87
2021/01/29 18:53:24;;;;;;;40.33;16.62;;;;;;;3.27;85.50;97532.78;1739270;80;21202;-83
2021/01/29 18:55:55;;;;;;;37.83;16.75;;;;;;;3.25;86.47;97537.11;1737196;81;21462;-83
2021/01/29 18:58:22;;;;;;;37.28;16.15;;;;;;;3.26;86.46;97530.63;1734285;81;21210;-87
2021/01/29 19:00:51;;;;;;;36.90;16.85;;;;;;;3.29;86.85;97522.05;1740751;81;21597;-87
2021/01/29 19:03:19;;;;;;;40.80;16.45;;;;;;;3.32;86.85;97519.39;1739877;81;21678;-88
2021/01/29 19:05:47;;;;;;;37.65;15.25;;;;;;;3.34;86.56;97509.52;1738620;81;21584;-86